createdAt,value
2023-04-25T00:01:57.598Z,100476.78
2023-04-25T00:02:46.871Z,100476.78
2023-04-25T00:04:24.222Z,100464.03
2023-04-25T00:06:50.946Z,100430.06
2023-04-25T00:07:46.725Z,100430.06
2023-04-25T00:09:17.429Z,100396.25
2023-04-25T00:11:43.894Z,100437.53
2023-04-25T00:12:46.788Z,100437.53
2023-04-25T00:14:10.945Z,100467.00
2023-04-25T00:16:39.923Z,100374.56
2023-04-25T00:17:46.902Z,100374.56
2023-04-25T00:19:06.417Z,100401.69
2023-04-25T00:21:32.867Z,100490.16
2023-04-25T00:22:46.753Z,100490.16
2023-04-25T00:23:59.583Z,100417.19
2023-04-25T00:26:26.627Z,100400.72
2023-04-25T00:27:46.793Z,100400.72
2023-04-25T00:28:53.045Z,100472.28
2023-04-25T00:31:19.566Z,100406.88
2023-04-25T00:32:46.757Z,100406.88
2023-04-25T00:33:46.045Z,100441.66
2023-04-25T00:36:12.503Z,100504.84
2023-04-25T00:37:46.814Z,100504.84
2023-04-25T00:38:41.277Z,100484.22
2023-04-25T00:41:08.514Z,100359.97
2023-04-25T00:42:46.749Z,100359.97
2023-04-25T00:43:39.022Z,100459.63
2023-04-25T00:46:05.596Z,100506.38
2023-04-25T00:47:46.810Z,100506.38
2023-04-25T00:48:32.114Z,100489.19
2023-04-25T00:50:59.889Z,100449.91
2023-04-25T00:52:46.763Z,100449.91
2023-04-25T00:53:28.683Z,100488.97
2023-04-25T00:55:55.994Z,100434.09
2023-04-25T00:57:46.767Z,100434.09
2023-04-25T00:58:23.023Z,100471.31
2023-04-25T01:00:53.011Z,100513.69
2023-04-25T01:02:46.902Z,100513.69
2023-04-25T01:03:22.906Z,100464.94
2023-04-25T01:05:49.650Z,100493.63
2023-04-25T01:07:46.727Z,100493.63
2023-04-25T01:08:16.210Z,100445.13
2023-04-25T01:10:42.793Z,100499.63
2023-04-25T01:12:46.736Z,100499.63
2023-04-25T01:13:09.975Z,100541.13
2023-04-25T01:15:36.991Z,100512.06
2023-04-25T01:17:46.791Z,100512.06
2023-04-25T01:18:08.269Z,100533.31
2023-04-25T01:20:35.287Z,100527.09
2023-04-25T01:22:46.767Z,100527.09
2023-04-25T01:23:03.205Z,100533.06
2023-04-25T01:25:30.902Z,100529.50
2023-04-25T01:27:46.764Z,100529.50
2023-04-25T01:27:58.423Z,100536.47
2023-04-25T01:30:28.997Z,100477.53
2023-04-25T01:32:46.770Z,100477.53
2023-04-25T01:32:57.343Z,100418.06
2023-04-25T01:35:26.874Z,100493.81
2023-04-25T01:37:47.770Z,100493.81
2023-04-25T01:37:53.296Z,100541.19
2023-04-25T01:40:21.890Z,100535.19
2023-04-25T01:42:46.737Z,100535.19
2023-04-25T01:42:48.392Z,100502.69
2023-04-25T01:45:14.879Z,100460.38
2023-04-25T01:47:41.323Z,100429.78
2023-04-25T01:47:46.792Z,100429.78
2023-04-25T01:50:09.179Z,100509.22
2023-04-25T01:52:35.651Z,100547.66
2023-04-25T01:52:46.768Z,100547.66
2023-04-25T01:55:02.972Z,100511.41
2023-04-25T01:57:29.386Z,100559.69
2023-04-25T01:57:46.741Z,100559.69
2023-04-25T02:00:01.554Z,100352.44
2023-04-25T02:02:28.418Z,100551.25
2023-04-25T02:02:46.898Z,100551.25
2023-04-25T02:04:55.495Z,100528.50
2023-04-25T02:07:22.103Z,100566.22
2023-04-25T02:07:46.753Z,100566.22
2023-04-25T02:09:48.641Z,100565.28
2023-04-25T02:12:15.152Z,100551.47
2023-04-25T02:12:46.768Z,100551.47
2023-04-25T02:14:41.623Z,100573.03
2023-04-25T02:17:08.154Z,100512.28
2023-04-25T02:17:46.779Z,100512.28
2023-04-25T02:19:34.812Z,100351.41
2023-04-25T02:22:01.635Z,100570.94
2023-04-25T02:22:46.765Z,100570.94
2023-04-25T02:24:28.941Z,100571.81
2023-04-25T02:26:56.765Z,100577.91
2023-04-25T02:27:46.882Z,100577.91
2023-04-25T02:29:24.080Z,100570.91
2023-04-25T02:31:50.703Z,100570.88
2023-04-25T02:32:46.787Z,100570.88
2023-04-25T02:34:17.151Z,100423.50
2023-04-25T02:36:43.596Z,100456.84
2023-04-25T02:37:46.766Z,100456.84
2023-04-25T02:39:09.979Z,100438.97
2023-04-25T02:41:36.412Z,100585.53
2023-04-25T02:42:46.738Z,100585.53
2023-04-25T02:44:02.777Z,100559.94
2023-04-25T02:46:38.853Z,100285.25
2023-04-25T02:47:46.741Z,100285.25
2023-04-25T02:49:06.895Z,100566.53
2023-04-25T02:51:33.638Z,100486.41
2023-04-25T02:52:46.779Z,100486.41
2023-04-25T02:54:00.300Z,100525.44
2023-04-25T02:56:27.247Z,100559.44
2023-04-25T02:57:46.732Z,100559.44
2023-04-25T02:58:54.639Z,100498.25
2023-04-25T03:01:21.351Z,100522.34
2023-04-25T03:02:46.899Z,100522.34
2023-04-25T03:03:48.015Z,100554.41
2023-04-25T03:06:14.911Z,100541.63
2023-04-25T03:07:46.742Z,100541.63
2023-04-25T03:08:41.360Z,100536.66
2023-04-25T03:11:07.894Z,100557.09
2023-04-25T03:12:46.742Z,100557.09
2023-04-25T03:13:34.329Z,100559.59
2023-04-25T03:16:01.055Z,100531.56
2023-04-25T03:17:46.786Z,100531.56
2023-04-25T03:18:27.423Z,100450.13
2023-04-25T03:20:53.904Z,100567.50
2023-04-25T03:22:46.783Z,100567.50
2023-04-25T03:23:20.275Z,100512.38
2023-04-25T03:25:46.709Z,100569.31
2023-04-25T03:27:46.767Z,100569.31
2023-04-25T03:28:13.154Z,100470.78
2023-04-25T03:30:39.462Z,100425.88
2023-04-25T03:32:46.822Z,100425.88
2023-04-25T03:33:05.842Z,100570.44
2023-04-25T03:35:34.363Z,100549.28
2023-04-25T03:37:46.818Z,100549.28
2023-04-25T03:38:00.768Z,100378.66
2023-04-25T03:40:27.149Z,100538.44
2023-04-25T03:42:46.771Z,100538.44
2023-04-25T03:42:53.560Z,100575.53
2023-04-25T03:45:20.336Z,100579.19
2023-04-25T03:47:46.766Z,100575.72
2023-04-25T03:47:47.012Z,100575.72
2023-04-25T03:50:13.130Z,100580.06
2023-04-25T03:52:39.480Z,100368.81
2023-04-25T03:52:46.753Z,100368.81
2023-04-25T03:55:06.366Z,100589.75
2023-04-25T03:57:34.169Z,100584.53
2023-04-25T03:57:46.746Z,100584.53
2023-04-25T04:00:00.688Z,100517.47
2023-04-25T04:02:27.365Z,100583.75
2023-04-25T04:02:46.848Z,100583.75
2023-04-25T04:04:57.685Z,100553.88
2023-04-25T04:07:24.298Z,100583.94
2023-04-25T04:07:46.770Z,100583.94
2023-04-25T04:09:50.639Z,100582.22
2023-04-25T04:12:17.090Z,100365.19
2023-04-25T04:12:46.775Z,100365.19
2023-04-25T04:14:43.468Z,100590.94
2023-04-25T04:17:09.849Z,100521.38
2023-04-25T04:17:46.831Z,100521.38
2023-04-25T04:19:36.229Z,100600.50
2023-04-25T04:22:02.744Z,100606.56
2023-04-25T04:22:46.781Z,100606.56
2023-04-25T04:24:29.231Z,100619.81
2023-04-25T04:26:56.009Z,100591.94
2023-04-25T04:27:46.931Z,100591.94
2023-04-25T04:29:23.645Z,100604.19
2023-04-25T04:31:51.845Z,100553.94
2023-04-25T04:32:47.433Z,100553.94
2023-04-25T04:34:19.397Z,100607.63
2023-04-25T04:36:47.232Z,100465.50
2023-04-25T04:37:46.905Z,100465.50
2023-04-25T04:39:14.553Z,100605.84
2023-04-25T04:41:41.387Z,100607.59
2023-04-25T04:42:46.769Z,100607.59
2023-04-25T04:44:09.919Z,100612.56
2023-04-25T04:46:38.789Z,100622.03
2023-04-25T04:47:46.845Z,100622.03
2023-04-25T04:49:10.223Z,100622.94
2023-04-25T04:51:37.529Z,100629.34
2023-04-25T04:52:46.785Z,100629.34
2023-04-25T04:54:04.659Z,100633.06
2023-04-25T04:56:34.037Z,100639.88
2023-04-25T04:57:46.763Z,100639.88
2023-04-25T04:59:00.796Z,100637.06
2023-04-25T05:01:27.718Z,100565.28
2023-04-25T05:02:46.905Z,100565.28
2023-04-25T05:03:55.225Z,100644.78
2023-04-25T05:06:21.927Z,100644.00
2023-04-25T05:07:46.764Z,100644.00
2023-04-25T05:08:48.370Z,100648.34
2023-04-25T05:11:14.913Z,100650.44
2023-04-25T05:12:46.791Z,100650.44
2023-04-25T05:13:41.239Z,100661.13
2023-04-25T05:16:07.690Z,100592.50
2023-04-25T05:17:46.790Z,100592.50
2023-04-25T05:18:34.127Z,100626.97
2023-04-25T05:21:00.471Z,100684.69
2023-04-25T05:22:46.771Z,100684.69
2023-04-25T05:23:28.753Z,100667.00
2023-04-25T05:25:55.357Z,100590.06
2023-04-25T05:27:46.783Z,100590.06
2023-04-25T05:28:22.153Z,100659.22
2023-04-25T05:30:48.792Z,100640.78
2023-04-25T05:32:46.775Z,100640.78
2023-04-25T05:33:15.594Z,100657.13
2023-04-25T05:35:42.573Z,100613.13
2023-04-25T05:37:46.785Z,100613.13
2023-04-25T05:38:09.021Z,100609.66
2023-04-25T05:40:38.147Z,100530.84
2023-04-25T05:42:46.756Z,100530.84
2023-04-25T05:43:04.603Z,100609.13
2023-04-25T05:45:31.103Z,100619.25
2023-04-25T05:47:46.781Z,100619.25
2023-04-25T05:47:57.459Z,100623.97
2023-04-25T05:50:23.922Z,100636.00
2023-04-25T05:52:46.785Z,100636.00
2023-04-25T05:52:50.849Z,100649.56
2023-04-25T05:55:17.359Z,100639.75
2023-04-25T05:57:46.180Z,100633.09
2023-04-25T05:57:46.756Z,100633.09
2023-04-25T06:00:15.958Z,100631.28
2023-04-25T06:02:43.045Z,100506.03
2023-04-25T06:02:46.977Z,100506.03
2023-04-25T06:05:09.840Z,100568.63
2023-04-25T06:07:36.369Z,100615.38
2023-04-25T06:07:46.771Z,100615.38
2023-04-25T06:10:02.875Z,100613.81
2023-04-25T06:12:29.266Z,100602.06
2023-04-25T06:12:46.773Z,100602.06
2023-04-25T06:14:55.683Z,100597.50
2023-04-25T06:17:22.193Z,100625.38
2023-04-25T06:17:46.808Z,100625.38
2023-04-25T06:19:48.590Z,100623.06
2023-04-25T06:22:14.922Z,100601.47
2023-04-25T06:22:46.749Z,100601.47
2023-04-25T06:24:41.320Z,100604.38
2023-04-25T06:27:07.727Z,100610.94
2023-04-25T06:27:46.777Z,100610.94
2023-04-25T06:29:34.155Z,100551.72
2023-04-25T06:32:02.902Z,100602.63
2023-04-25T06:32:46.772Z,100602.63
2023-04-25T06:34:29.235Z,100597.09
2023-04-25T06:36:55.666Z,100605.81
2023-04-25T06:37:46.840Z,100605.81
2023-04-25T06:39:24.211Z,100554.84
2023-04-25T06:41:50.688Z,100550.84
2023-04-25T06:42:46.778Z,100550.84
2023-04-25T06:44:17.135Z,100609.22
2023-04-25T06:46:43.573Z,100592.78
2023-04-25T06:47:46.846Z,100592.78
2023-04-25T06:49:10.028Z,100644.97
2023-04-25T06:51:36.497Z,100643.09
2023-04-25T06:52:46.839Z,100643.09
2023-04-25T06:54:07.630Z,100613.56
2023-04-25T06:56:34.064Z,100632.69
2023-04-25T06:57:46.770Z,100632.69
2023-04-25T06:59:01.735Z,100572.75
2023-04-25T07:01:28.273Z,100619.13
2023-04-25T07:02:46.924Z,100619.13
2023-04-25T07:03:54.832Z,100602.59
2023-04-25T07:06:21.451Z,100609.31
2023-04-25T07:07:46.788Z,100609.31
2023-04-25T07:08:50.678Z,100538.59
2023-04-25T07:11:17.206Z,100536.22
2023-04-25T07:12:46.780Z,100536.22
2023-04-25T07:13:43.646Z,100580.06
2023-04-25T07:16:10.305Z,100505.22
2023-04-25T07:17:46.867Z,100505.22
2023-04-25T07:18:36.709Z,100586.53
2023-04-25T07:21:03.366Z,100516.50
2023-04-25T07:22:46.817Z,100516.50
2023-04-25T07:23:29.780Z,100573.72
2023-04-25T07:25:56.846Z,100525.84
2023-04-25T07:27:46.800Z,100525.84
2023-04-25T07:28:23.254Z,100397.81
2023-04-25T07:30:49.657Z,100448.84
2023-04-25T07:32:46.843Z,100448.84
2023-04-25T07:33:16.170Z,100442.91
2023-04-25T07:35:42.704Z,100517.66
2023-04-25T07:37:46.897Z,100517.66
2023-04-25T07:38:09.177Z,100517.72
2023-04-25T07:40:36.222Z,100520.34
2023-04-25T07:42:46.811Z,100520.34
2023-04-25T07:43:03.172Z,100519.63
2023-04-25T07:45:29.823Z,100522.72
2023-04-25T07:47:46.810Z,100522.72
2023-04-25T07:47:58.469Z,100551.84
2023-04-25T07:50:25.118Z,100498.38
2023-04-25T07:52:46.803Z,100498.38
2023-04-25T07:52:51.606Z,100522.78
2023-04-25T07:55:17.902Z,100519.63
2023-04-25T07:57:44.233Z,100498.38
2023-04-25T07:57:46.791Z,100498.38
2023-04-25T08:00:12.091Z,100509.03
2023-04-25T08:02:38.648Z,100405.47
2023-04-25T08:02:46.864Z,100405.47
2023-04-25T08:05:06.247Z,100351.72
2023-04-25T08:07:32.881Z,100434.69
2023-04-25T08:07:46.800Z,100434.69
2023-04-25T08:09:59.309Z,100376.09
2023-04-25T08:12:25.945Z,100491.09
2023-04-25T08:12:46.793Z,100491.09
2023-04-25T08:14:52.453Z,100457.44
2023-04-25T08:17:19.047Z,100457.38
2023-04-25T08:17:46.881Z,100457.38
2023-04-25T08:19:45.470Z,100348.75
2023-04-25T08:22:11.973Z,100319.56
2023-04-25T08:22:46.800Z,100319.56
2023-04-25T08:24:39.434Z,100320.00
2023-04-25T08:27:07.489Z,100348.47
2023-04-25T08:27:46.782Z,100348.47
2023-04-25T08:29:34.034Z,100244.94
2023-04-25T08:32:00.551Z,100390.88
2023-04-25T08:32:46.884Z,100390.88
2023-04-25T08:34:27.141Z,100302.88
2023-04-25T08:36:53.960Z,100454.25
2023-04-25T08:37:46.880Z,100454.25
2023-04-25T08:39:21.808Z,100440.50
2023-04-25T08:41:48.635Z,100445.66
2023-04-25T08:42:46.927Z,100445.66
2023-04-25T08:44:15.728Z,100395.72
2023-04-25T08:46:42.439Z,100345.56
2023-04-25T08:47:46.867Z,100345.56
2023-04-25T08:49:12.699Z,100311.78
2023-04-25T08:51:47.791Z,100174.50
2023-04-25T08:52:46.798Z,100174.50
2023-04-25T08:54:33.501Z,100227.09
2023-04-25T08:57:04.711Z,100188.09
2023-04-25T08:57:46.793Z,100188.09
2023-04-25T08:59:32.275Z,100204.03
2023-04-25T09:01:58.896Z,100177.13
2023-04-25T09:02:46.920Z,100177.13
2023-04-25T09:04:25.597Z,100213.25
2023-04-25T09:06:52.060Z,100219.78
2023-04-25T09:07:48.410Z,100219.78
2023-04-25T09:09:19.127Z,100183.88
2023-04-25T09:11:48.097Z,99972.06
2023-04-25T09:12:46.920Z,99972.06
2023-04-25T09:14:21.365Z,100235.94
2023-04-25T09:16:58.742Z,100275.75
2023-04-25T09:17:46.850Z,100275.75
2023-04-25T09:19:39.574Z,100156.13
2023-04-25T09:22:07.244Z,100038.63
2023-04-25T09:22:46.796Z,100038.63
2023-04-25T09:24:36.899Z,100102.97
2023-04-25T09:27:04.816Z,100149.44
2023-04-25T09:27:46.817Z,100149.44
2023-04-25T09:29:37.124Z,100116.91
2023-04-25T09:32:24.428Z,100013.53
2023-04-25T09:32:46.883Z,100013.53
2023-04-25T09:34:53.771Z,100004.28
2023-04-25T09:37:21.426Z,100002.22
2023-04-25T09:37:46.812Z,100002.22
2023-04-25T09:39:49.764Z,100202.13
2023-04-25T09:42:17.840Z,100060.47
2023-04-25T09:42:46.851Z,100060.47
2023-04-25T09:44:48.127Z,100104.63
2023-04-25T09:47:17.336Z,100102.97
2023-04-25T09:47:46.866Z,100102.97
2023-04-25T09:49:44.521Z,100101.56
2023-04-25T09:52:16.589Z,100122.69
2023-04-25T09:52:46.812Z,100122.69
2023-04-25T09:54:42.998Z,100065.19
2023-04-25T09:57:18.750Z,100227.91
2023-04-25T09:57:46.804Z,100227.91
2023-04-25T09:59:52.689Z,100186.31
2023-04-25T10:02:21.464Z,100012.84
2023-04-25T10:02:46.944Z,100012.84
2023-04-25T10:04:55.223Z,99944.84
2023-04-25T10:07:26.661Z,99765.91
2023-04-25T10:07:46.802Z,99765.91
2023-04-25T10:10:04.040Z,99961.41
2023-04-25T10:12:34.588Z,100070.34
2023-04-25T10:12:46.819Z,100070.34
2023-04-25T10:15:02.364Z,100140.00
2023-04-25T10:17:29.088Z,100113.03
2023-04-25T10:17:46.873Z,100113.03
2023-04-25T10:19:56.096Z,100000.06
2023-04-25T10:22:40.545Z,99994.63
2023-04-25T10:22:46.808Z,99994.63
2023-04-25T10:25:09.346Z,100098.78
2023-04-25T10:27:36.362Z,100111.53
2023-04-25T10:27:46.800Z,100111.53
2023-04-25T10:30:13.432Z,100132.13
2023-04-25T10:32:39.889Z,100185.28
2023-04-25T10:32:46.809Z,100185.28
2023-04-25T10:35:13.762Z,100150.25
2023-04-25T10:38:01.120Z,100138.03
2023-04-25T10:38:01.301Z,100138.03
2023-04-25T10:40:28.149Z,100252.22
2023-04-25T10:42:46.799Z,100252.22
2023-04-25T10:42:55.941Z,100221.28
2023-04-25T10:45:24.737Z,100257.50
2023-04-25T10:47:46.891Z,100257.50
2023-04-25T10:47:51.236Z,100113.97
2023-04-25T10:50:18.043Z,100071.34
2023-04-25T10:52:45.376Z,100262.03
2023-04-25T10:52:46.793Z,100262.03
2023-04-25T10:55:11.763Z,100228.97
2023-04-25T10:57:48.514Z,100167.16
2023-04-25T10:57:48.660Z,100167.16
2023-04-25T11:00:17.566Z,100116.97
2023-04-25T11:02:49.456Z,100219.81
2023-04-25T11:02:49.869Z,100219.81
2023-04-25T11:05:33.064Z,100132.59
2023-04-25T11:07:52.914Z,100132.59
2023-04-25T11:08:07.891Z,100084.72
2023-04-25T11:10:37.907Z,100156.13
2023-04-25T11:12:46.813Z,100156.13
2023-04-25T11:13:05.484Z,100232.50
2023-04-25T11:15:31.946Z,100211.56
2023-04-25T11:17:46.875Z,100211.56
2023-04-25T11:17:58.392Z,100118.94
2023-04-25T11:20:29.097Z,100276.06
2023-04-25T11:22:46.807Z,100276.06
2023-04-25T11:22:58.937Z,100291.91
2023-04-25T11:25:25.551Z,100173.75
2023-04-25T11:27:46.829Z,100173.75
2023-04-25T11:28:02.197Z,100144.69
2023-04-25T11:30:29.840Z,100221.81
2023-04-25T11:32:46.871Z,100221.81
2023-04-25T11:32:56.318Z,100203.56
2023-04-25T11:35:24.214Z,100115.41
2023-04-25T11:37:47.007Z,100115.41
2023-04-25T11:37:51.291Z,100119.00
2023-04-25T11:40:17.829Z,100150.63
2023-04-25T11:42:46.156Z,100076.22
2023-04-25T11:42:46.832Z,100076.22
2023-04-25T11:45:13.326Z,100120.31
2023-04-25T11:47:39.909Z,100287.66
2023-04-25T11:47:46.886Z,100287.66
2023-04-25T11:50:08.901Z,100160.00
2023-04-25T11:52:38.068Z,100272.06
2023-04-25T11:52:46.823Z,100272.06
2023-04-25T11:55:15.590Z,100202.88
2023-04-25T11:57:43.656Z,99989.00
2023-04-25T11:57:46.804Z,99989.00
2023-04-25T12:00:17.624Z,100040.59
2023-04-25T12:02:52.139Z,100058.41
2023-04-25T12:02:52.648Z,100058.41
2023-04-25T12:07:46.802Z,100116.84
2023-04-25T12:07:48.162Z,100046.13
2023-04-25T12:10:16.285Z,100197.66
2023-04-25T12:12:43.997Z,100063.72
2023-04-25T12:12:46.844Z,100063.72
2023-04-25T12:15:16.208Z,100243.03
2023-04-25T12:17:45.721Z,100317.16
2023-04-25T12:17:46.913Z,100317.16
2023-04-25T12:20:15.793Z,100312.97
2023-04-25T12:22:47.690Z,100315.53
2023-04-25T12:22:47.872Z,100315.53
2023-04-25T12:25:34.247Z,100421.06
2023-04-25T12:27:46.805Z,100421.06
2023-04-25T12:28:28.433Z,100550.38
2023-04-25T12:30:59.683Z,100519.66
2023-04-25T12:32:46.905Z,100519.66
2023-04-25T12:33:27.783Z,100556.31
2023-04-25T12:35:55.094Z,100526.56
2023-04-25T12:37:46.823Z,100526.56
2023-04-25T12:38:30.853Z,100565.97
2023-04-25T12:41:00.900Z,100506.69
2023-04-25T12:42:46.858Z,100506.69
2023-04-25T12:43:27.552Z,100365.22
2023-04-25T12:45:55.496Z,100565.22
2023-04-25T12:47:46.917Z,100565.22
2023-04-25T12:48:22.853Z,100502.72
2023-04-25T12:50:50.557Z,100496.66
2023-04-25T12:52:46.820Z,100496.66
2023-04-25T12:53:22.674Z,100372.50
2023-04-25T12:55:49.363Z,100422.38
2023-04-25T12:57:46.850Z,100422.38
2023-04-25T12:58:17.346Z,100434.06
2023-04-25T13:00:44.494Z,100234.91
2023-04-25T13:02:46.950Z,100234.91
2023-04-25T13:03:12.069Z,100323.44
2023-04-25T13:05:39.400Z,100345.41
2023-04-25T13:07:46.825Z,100345.41
2023-04-25T13:08:05.879Z,100386.78
2023-04-25T13:10:32.319Z,100246.50
2023-04-25T13:12:46.900Z,100246.50
2023-04-25T13:12:58.763Z,100117.44
2023-04-25T13:15:25.831Z,100130.72
2023-04-25T13:17:46.892Z,100130.72
2023-04-25T13:17:52.251Z,100187.16
2023-04-25T13:20:19.866Z,100146.06
2023-04-25T13:22:46.682Z,100346.97
2023-04-25T13:22:46.865Z,100346.97
2023-04-25T13:25:12.985Z,100353.38
2023-04-25T13:27:41.332Z,100289.72
2023-04-25T13:27:46.856Z,100289.72
2023-04-25T13:30:11.004Z,100273.09
2023-04-25T13:32:38.267Z,100316.38
2023-04-25T13:32:46.888Z,100316.38
2023-04-25T13:35:09.251Z,100394.19
2023-04-25T13:37:37.291Z,100366.25
2023-04-25T13:37:46.841Z,100366.25
2023-04-25T13:40:06.391Z,100299.66
2023-04-25T13:42:35.705Z,100453.28
2023-04-25T13:42:46.846Z,100453.28
2023-04-25T13:45:02.150Z,100406.22
2023-04-25T13:47:28.893Z,100491.97
2023-04-25T13:47:46.942Z,100491.97
2023-04-25T13:49:55.460Z,100347.34
2023-04-25T13:52:21.948Z,100330.91
2023-04-25T13:52:46.839Z,100330.91
2023-04-25T13:54:48.272Z,100163.34
2023-04-25T13:57:14.651Z,100396.06
2023-04-25T13:57:46.896Z,100396.06
2023-04-25T13:59:41.799Z,100386.88
2023-04-25T14:02:08.378Z,100375.72
2023-04-25T14:02:48.661Z,100375.72
2023-04-25T14:04:34.785Z,100355.75
2023-04-25T14:07:01.704Z,100321.69
2023-04-25T14:07:46.831Z,100321.69
2023-04-25T14:09:28.282Z,100415.06
2023-04-25T14:11:55.282Z,100456.41
2023-04-25T14:12:46.873Z,100456.41
2023-04-25T14:14:22.926Z,100419.56
2023-04-25T14:16:51.169Z,100434.56
2023-04-25T14:17:46.913Z,100434.56
2023-04-25T14:19:19.679Z,100476.97
2023-04-25T14:21:47.795Z,100531.16
2023-04-25T14:22:46.850Z,100531.16
2023-04-25T14:24:14.676Z,100577.59
2023-04-25T14:26:41.745Z,100513.03
2023-04-25T14:27:46.840Z,100513.03
2023-04-25T14:29:09.672Z,100507.13
2023-04-25T14:31:36.393Z,100512.81
2023-04-25T14:32:46.890Z,100512.81
2023-04-25T14:34:03.650Z,100576.44
2023-04-25T14:36:30.168Z,100542.59
2023-04-25T14:37:46.862Z,100542.59
2023-04-25T14:38:56.879Z,100493.34
2023-04-25T14:41:24.122Z,100564.16
2023-04-25T14:42:46.852Z,100564.16
2023-04-25T14:43:50.722Z,100554.09
2023-04-25T14:46:17.853Z,100565.44
2023-04-25T14:47:47.000Z,100565.44
2023-04-25T14:48:44.316Z,100611.59
2023-04-25T14:51:11.322Z,100573.81
2023-04-25T14:52:46.880Z,100573.81
2023-04-25T14:53:38.087Z,100591.91
2023-04-25T14:56:04.653Z,100557.97
2023-04-25T14:57:46.887Z,100557.97
2023-04-25T14:58:32.259Z,100646.41
2023-04-25T15:00:59.470Z,100459.41
2023-04-25T15:02:47.100Z,100459.41
2023-04-25T15:03:26.334Z,100489.13
2023-04-25T15:05:53.591Z,100567.13
2023-04-25T15:07:46.896Z,100567.13
2023-04-25T15:08:20.057Z,100473.13
2023-04-25T15:10:47.426Z,100560.63
2023-04-25T15:12:47.926Z,100560.63
2023-04-25T15:13:13.929Z,100588.28
2023-04-25T15:15:40.935Z,100630.88
2023-04-25T15:17:46.886Z,100630.88
2023-04-25T15:18:09.605Z,100627.72
2023-04-25T15:20:36.442Z,100581.25
2023-04-25T15:22:46.926Z,100581.25
2023-04-25T15:23:04.476Z,100656.38
2023-04-25T15:25:31.008Z,100682.66
2023-04-25T15:27:46.871Z,100682.66
2023-04-25T15:27:57.414Z,100658.66
2023-04-25T15:30:24.505Z,100628.69
2023-04-25T15:32:46.925Z,100628.69
2023-04-25T15:32:51.007Z,100651.19
2023-04-25T15:35:17.512Z,100594.22
2023-04-25T15:37:44.194Z,100582.31
2023-04-25T15:37:46.951Z,100582.31
2023-04-25T15:40:14.953Z,100512.31
2023-04-25T15:42:53.603Z,100523.28
2023-04-25T15:42:53.807Z,100523.28
2023-04-25T15:45:24.082Z,100506.34
2023-04-25T15:47:46.854Z,100506.34
2023-04-25T15:47:52.560Z,100604.91
2023-04-25T15:50:19.837Z,100569.94
2023-04-25T15:52:46.209Z,100651.53
2023-04-25T15:52:46.893Z,100651.53
2023-04-25T15:55:16.643Z,100601.81
2023-04-25T15:57:43.122Z,100561.34
2023-04-25T15:57:46.852Z,100561.34
2023-04-25T16:00:12.850Z,100599.53
2023-04-25T16:02:40.609Z,100483.78
2023-04-25T16:02:47.000Z,100483.78
2023-04-25T16:05:07.861Z,100644.06
2023-04-25T16:07:34.710Z,100588.16
2023-04-25T16:07:46.886Z,100588.16
2023-04-25T16:10:01.550Z,100582.16
2023-04-25T16:12:28.552Z,100606.94
2023-04-25T16:12:46.893Z,100606.94
2023-04-25T16:14:56.071Z,100569.34
2023-04-25T16:17:22.506Z,100550.31
2023-04-25T16:17:46.908Z,100550.31
2023-04-25T16:19:50.245Z,100441.13
2023-04-25T16:22:17.335Z,100436.63
2023-04-25T16:22:46.856Z,100436.63
2023-04-25T16:24:44.934Z,100470.38
2023-04-25T16:27:11.468Z,100416.41
2023-04-25T16:27:46.842Z,100416.41
2023-04-25T16:29:38.395Z,100411.69
2023-04-25T16:32:04.940Z,100426.69
2023-04-25T16:32:46.922Z,100426.69
2023-04-25T16:34:31.371Z,100487.94
2023-04-25T16:36:57.715Z,100436.56
2023-04-25T16:37:46.957Z,100436.56
2023-04-25T16:39:24.064Z,100469.31
2023-04-25T16:41:50.777Z,100410.31
2023-04-25T16:42:46.861Z,100410.31
2023-04-25T16:44:17.095Z,100450.19
2023-04-25T16:46:43.642Z,100499.75
2023-04-25T16:47:46.936Z,100499.75
2023-04-25T16:49:10.174Z,100406.31
2023-04-25T16:51:36.676Z,100511.53
2023-04-25T16:52:46.886Z,100511.53
2023-04-25T16:54:03.181Z,100488.69
2023-04-25T16:56:29.651Z,100520.94
2023-04-25T16:57:46.924Z,100520.94
2023-04-25T16:58:55.976Z,100490.69
2023-04-25T17:01:22.602Z,100601.06
2023-04-25T17:02:47.163Z,100601.06
2023-04-25T17:03:49.195Z,100575.59
2023-04-25T17:06:15.762Z,100481.16
2023-04-25T17:07:46.870Z,100481.16
2023-04-25T17:08:42.102Z,100461.91
2023-04-25T17:11:09.815Z,100541.78
2023-04-25T17:12:46.903Z,100541.78
2023-04-25T17:13:36.905Z,100577.31
2023-04-25T17:16:03.928Z,100512.59
2023-04-25T17:17:46.943Z,100512.59
2023-04-25T17:18:30.407Z,100546.91
2023-04-25T17:20:56.790Z,100579.06
2023-04-25T17:22:46.946Z,100579.06
2023-04-25T17:23:25.698Z,100597.53
2023-04-25T17:25:52.120Z,100552.81
2023-04-25T17:27:46.902Z,100552.81
2023-04-25T17:28:18.489Z,100631.47
2023-04-25T17:30:44.825Z,100607.72
2023-04-25T17:32:46.899Z,100607.72
2023-04-25T17:33:11.278Z,100599.56
2023-04-25T17:35:37.654Z,100625.69
2023-04-25T17:37:46.975Z,100625.69
2023-04-25T17:38:04.232Z,100632.75
2023-04-25T17:40:31.507Z,100625.75
2023-04-25T17:42:46.873Z,100625.75
2023-04-25T17:42:57.947Z,100614.94
2023-04-25T17:45:24.294Z,100594.13
2023-04-25T17:47:46.898Z,100594.13
2023-04-25T17:47:50.731Z,100583.88
2023-04-25T17:50:17.510Z,100589.41
2023-04-25T17:52:45.079Z,100599.66
2023-04-25T17:52:46.899Z,100599.66
2023-04-25T17:55:11.598Z,100599.19
2023-04-25T17:57:38.116Z,100539.22
2023-04-25T17:57:46.902Z,100539.22
2023-04-25T18:00:07.731Z,100545.03
2023-04-25T18:02:36.329Z,100558.78
2023-04-25T18:02:46.970Z,100558.78
2023-04-25T18:05:09.142Z,100428.34
2023-04-25T18:07:36.535Z,100554.78
2023-04-25T18:07:46.891Z,100554.78
2023-04-25T18:10:05.903Z,100528.28
2023-04-25T18:12:33.838Z,100499.28
2023-04-25T18:12:46.905Z,100499.28
2023-04-25T18:15:01.747Z,100561.53
2023-04-25T18:17:28.387Z,100532.44
2023-04-25T18:17:46.975Z,100532.44
2023-04-25T18:19:55.425Z,100534.13
2023-04-25T18:22:22.160Z,100448.31
2023-04-25T18:22:46.925Z,100448.31
2023-04-25T18:24:50.041Z,100539.25
2023-04-25T18:27:17.274Z,100557.03
2023-04-25T18:27:46.918Z,100557.03
2023-04-25T18:29:45.350Z,100543.97
2023-04-25T18:32:12.103Z,100493.22
2023-04-25T18:32:46.937Z,100493.22
2023-04-25T18:34:41.409Z,100595.53
2023-04-25T18:37:07.826Z,100615.91
2023-04-25T18:37:46.958Z,100615.91
2023-04-25T18:39:34.278Z,100655.66
2023-04-25T18:42:05.475Z,100672.63
2023-04-25T18:42:46.903Z,100672.63
2023-04-25T18:44:36.482Z,100687.69
2023-04-25T18:47:03.091Z,100706.25
2023-04-25T18:47:46.988Z,100706.25
2023-04-25T18:49:29.515Z,100610.75
2023-04-25T18:51:58.392Z,100732.97
2023-04-25T18:52:46.893Z,100732.97